Besuchen Sie unsere anderen Wetter Stationen:

Template documentation
and downloads

And another site



Select another period ( hide this area )

Einheiten Zeitraum Custom range Directly to
metrisch Englisch Beide
Tägliche Wöchentliche Monatliche Jährlich
use both date-selectors for a custom range
previous Tag
With this date

WeatherUnderground graphs for this period ( click here ) Loading the graph can take up to a minute!



Warning: Division by zero in /is/htdocs/wp10906056_0YHW7Q9XB7/www/weather28/wuhistory/WU-History4.php on line 817
Tägliche Zusammenfassung für Montag 26 Oktober 2020
Zeit Temp. ( °C ) Dew pt. ( °C ) Wind ( km/h ) von Windböen ( km/h ) Luftdruck ( hPa ) Humid.( % ) Rainrate ( cm ) Solar ( W/m2 )
Hoch9,9 9,1 10,0 Westen ( 57/110 ) 10,0 1004,8 96 1,60 0
Durchchnittswerte9,7 8,8 3,2 Westen #15/34 2,3 1004,0 95 1,40 NAN #0/34
Wenig9,5 8,6 -   0,0 1003,6 93 -  
Tägliche Tabular details for Montag 26 Oktober 2020
Zeit Temp. ( °C ) Dew pt. ( °C ) Wind ( km/h ) von Windböen ( km/h ) Luftdruck ( hPa ) Humid.( % ) Rainrate ( cm ) Solar ( W/m2 )
00:04 9,7 8,7   Windstille   1004,8 93 - -
00:09 9,7 8,7   Windstille   1004,7 94 - -
00:14 9,7 8,7   Windstille   1004,6 94 - -
00:19 9,7 8,7 4,0 Westen 2,0 1004,5 94 - -
00:24 9,7 8,7 4,0 Westen 3,0 1004,4 94 - -
00:29 9,7 8,7 4,0 Westen 3,0 1004,4 94 - -
00:34 9,8 8,7 4,0 Westen 2,0 1004,3 93 - -
00:39 9,8 8,7 4,0 Westen 2,0 1004,3 93 - -
00:44 9,8 8,7 4,0 Westen 3,0 1004,1 93 0,20 -
00:49 9,8 8,8 3,0 Westen 2,0 1004,0 94 - -
00:54 9,7 8,7 4,0 Westen 3,0 1003,9 94 - -
00:59 9,6 8,7 2,0 Westen 3,0 1003,9 94 - -
01:04 9,6 8,7 4,0 Westen 2,0 1003,9 94 0,20 -
01:09 9,6 8,6 4,0 Westen 2,0 1003,9 94 0,20 -
01:14 9,6 8,6 4,0 Westen 2,0 1003,8 94 0,20 -
01:19 9,6 8,7 4,0 Westen 3,0 1003,7 94 0,20 -
01:24 9,6 8,8 4,0 Westen 3,0 1003,8 95 0,20 -
01:29 9,7 8,9 10,0 SW 5,0 1004,0 95 0,20 -
01:34 9,9 9,1 7,0 SW 10,0 1004,0 95 0,41 -
01:39 9,9 9,0 6,0 Norden 6,0 1003,8 94 0,20 -
01:44 9,8 8,9 4,0 Norden 2,0 1003,8 95 0,20 -
01:49 9,6 8,8 4,0 Norden 2,0 1003,7 95 0,41 -
01:54 9,6 8,9 4,0 Norden 2,0 1003,7 96 0,41 -
01:59 9,6 8,9 2,0 Norden 3,0 1003,8 96 0,41 -
02:04 9,7 9,1 4,0 WNW 2,0 1003,9 96 0,41 -
02:09 9,7 9,1 4,0 Westen 3,0 1004,1 96 0,41 -
02:14 9,8 9,0 4,0 SSW 3,0 1004,1 95 0,79 -
02:19 9,8 9,0 2,0 SSW 3,0 1004,0 95 1,19 -
02:24 9,8 9,0   Windstille   1003,9 95 1,60 -
02:29 9,7 8,9   Windstille   1003,8 95 1,60 -
02:34 9,7 9,0   Windstille   1003,8 96 1,60 -
02:39 9,6 9,0 2,0 SSW   1003,8 96 1,40 -
02:44 9,6 8,9   Windstille   1003,7 96 1,60 -
02:49 9,5 8,9 4,0 SSW 2,0 1003,6 96 1,60 -
Tägliche Zusammenfassung für Montag 26 Oktober 2020
Zeit Temp. ( °C ) Dew pt. ( °C ) Wind ( km/h ) von Windböen ( km/h ) Luftdruck ( hPa ) Humid.( % ) Rainrate ( cm ) Solar ( W/m2 )
Hoch9,9 9,1 10,0 Westen ( 57/110 ) 10,0 1004,8 96 1,60 0
Durchchnittswerte9,7 8,8 3,2 Westen #15/34 2,3 1004,0 95 1,40 NAN #0/34
Wenig9,5 8,6 -   0,0 1003,6 93 -  
Tägliche Tabular details for Montag 26 Oktober 2020
Zeit Temp. ( °C ) Dew pt. ( °C ) Wind ( km/h ) von Windböen ( km/h ) Luftdruck ( hPa ) Humid.( % ) Rainrate ( cm ) Solar ( W/m2 )
00:04 9,7 8,7   Windstille   1004,8 93 - -
00:09 9,7 8,7   Windstille   1004,7 94 - -
00:14 9,7 8,7   Windstille   1004,6 94 - -
00:19 9,7 8,7 4,0 Westen 2,0 1004,5 94 - -
00:24 9,7 8,7 4,0 Westen 3,0 1004,4 94 - -
00:29 9,7 8,7 4,0 Westen 3,0 1004,4 94 - -
00:34 9,8 8,7 4,0 Westen 2,0 1004,3 93 - -
00:39 9,8 8,7 4,0 Westen 2,0 1004,3 93 - -
00:44 9,8 8,7 4,0 Westen 3,0 1004,1 93 0,20 -
00:49 9,8 8,8 3,0 Westen 2,0 1004,0 94 - -
00:54 9,7 8,7 4,0 Westen 3,0 1003,9 94 - -
00:59 9,6 8,7 2,0 Westen 3,0 1003,9 94 - -
01:04 9,6 8,7 4,0 Westen 2,0 1003,9 94 0,20 -
01:09 9,6 8,6 4,0 Westen 2,0 1003,9 94 0,20 -
01:14 9,6 8,6 4,0 Westen 2,0 1003,8 94 0,20 -
01:19 9,6 8,7 4,0 Westen 3,0 1003,7 94 0,20 -
01:24 9,6 8,8 4,0 Westen 3,0 1003,8 95 0,20 -
01:29 9,7 8,9 10,0 SW 5,0 1004,0 95 0,20 -
01:34 9,9 9,1 7,0 SW 10,0 1004,0 95 0,41 -
01:39 9,9 9,0 6,0 Norden 6,0 1003,8 94 0,20 -
01:44 9,8 8,9 4,0 Norden 2,0 1003,8 95 0,20 -
01:49 9,6 8,8 4,0 Norden 2,0 1003,7 95 0,41 -
01:54 9,6 8,9 4,0 Norden 2,0 1003,7 96 0,41 -
01:59 9,6 8,9 2,0 Norden 3,0 1003,8 96 0,41 -
02:04 9,7 9,1 4,0 WNW 2,0 1003,9 96 0,41 -
02:09 9,7 9,1 4,0 Westen 3,0 1004,1 96 0,41 -
02:14 9,8 9,0 4,0 SSW 3,0 1004,1 95 0,79 -
02:19 9,8 9,0 2,0 SSW 3,0 1004,0 95 1,19 -
02:24 9,8 9,0   Windstille   1003,9 95 1,60 -
02:29 9,7 8,9   Windstille   1003,8 95 1,60 -
02:34 9,7 9,0   Windstille   1003,8 96 1,60 -
02:39 9,6 9,0 2,0 SSW   1003,8 96 1,40 -
02:44 9,6 8,9   Windstille   1003,7 96 1,60 -
02:49 9,5 8,9 4,0 SSW 2,0 1003,6 96 1,60 -

Download your copy of this data-set  here

Our weather-data as stored at Weather Underground. Script entwickelt von Jim McMurry. Angepasst für das Template von Leuven-Template.eu

Sie finden unser Wetter-Infos auch auf:

netzwerkwettercom

European Weather Network

WeatherCloud

Weather Underground

AWEKAS

Citizen Weather Observer Program (CWOP)

HAMweather, WeatherForYou, PWS Weather

Von uns verwendete Ausrüstung:

Wetterstation
Davis VP2

Wetterprogramm
Weather Display

Davis VP2

Weather Display